Time;durP1;ratioP1;P1;durP2;ratioP2;P2;SDS_P1;SDS_P2;PMS_P1;PMS_P2;Temp;Humidity;BMP_temperature;BMP_pressure;BME280_temperature;BME280_humidity;BME280_pressure;Samples;Min_cycle;Max_cycle;Signal;HPM_P1;HPM_P2
2024/01/12 00:01:12;;;;;;;48.95;28.02;;;;;;;2.09;76.69;103310.88;4990942;28;20026;-61
2024/01/12 00:03:37;;;;;;;45.35;26.88;;;;;;;2.08;76.36;103307.25;5025960;28;20487;-61
2024/01/12 00:06:03;;;;;;;49.58;29.30;;;;;;;2.09;76.13;103311.75;5027853;28;20040;-61
2024/01/12 00:08:28;;;;;;;46.95;28.00;;;;;;;2.08;76.96;103309.97;5027592;28;20074;-61
2024/01/12 00:10:54;;;;;;;49.72;28.60;;;;;;;2.11;76.97;103314.34;5025690;28;20025;-61
2024/01/12 00:13:19;;;;;;;45.95;28.23;;;;;;;2.10;76.18;103313.47;5026858;28;20041;-61
2024/01/12 00:15:44;;;;;;;48.70;28.38;;;;;;;2.12;76.47;103316.94;4996566;28;20038;-61
2024/01/12 00:18:10;;;;;;;48.00;28.63;;;;;;;2.12;76.59;103313.31;5010563;28;20108;-61
2024/01/12 00:20:36;;;;;;;45.80;27.85;;;;;;;2.11;76.22;103317.94;5023513;28;20071;-62
2024/01/12 00:23:02;;;;;;;52.67;30.25;;;;;;;2.13;76.77;103310.47;5017504;28;20098;-62
2024/01/12 00:25:27;;;;;;;45.85;27.98;;;;;;;2.13;76.45;103315.94;5070794;28;20045;-62
2024/01/12 00:27:53;;;;;;;50.30;28.30;;;;;;;2.14;75.88;103314.06;5031830;28;20033;-62
2024/01/12 00:30:18;;;;;;;47.80;28.65;;;;;;;2.13;76.14;103310.47;5088961;28;20033;-61
2024/01/12 00:32:43;;;;;;;49.75;27.58;;;;;;;2.13;75.90;103321.41;5029800;28;20117;-62
2024/01/12 00:35:08;;;;;;;49.38;28.23;;;;;;;2.13;76.55;103315.94;5019050;28;20022;-62
2024/01/12 00:37:35;;;;;;;49.97;29.05;;;;;;;2.12;76.48;103313.31;5024140;28;20068;-62
2024/01/12 00:40:01;;;;;;;47.53;27.90;;;;;;;2.11;76.30;103317.94;5099514;28;20059;-60
2024/01/12 00:42:26;;;;;;;45.33;28.45;;;;;;;2.12;76.55;103322.44;5056874;28;20501;-60
2024/01/12 00:44:52;;;;;;;46.45;27.83;;;;;;;2.11;76.83;103303.38;5073280;28;20033;-60
2024/01/12 00:47:17;;;;;;;48.42;28.58;;;;;;;2.12;76.51;103311.47;5015010;28;20037;-60
2024/01/12 00:49:42;;;;;;;49.30;27.33;;;;;;;2.12;75.96;103311.47;5012394;28;20046;-60
2024/01/12 00:52:07;;;;;;;52.65;27.20;;;;;;;2.13;76.97;103326.03;5020997;28;20537;-60
2024/01/12 00:54:33;;;;;;;46.30;27.98;;;;;;;2.13;76.51;103324.16;5060176;28;20030;-60
2024/01/12 00:56:58;;;;;;;48.28;28.15;;;;;;;2.13;76.36;103318.69;5069625;28;20342;-60
2024/01/12 00:59:24;;;;;;;48.05;28.45;;;;;;;2.14;75.83;103320.41;5048089;28;20034;-60
2024/01/12 01:01:49;;;;;;;45.83;26.50;;;;;;;2.13;75.81;103320.56;5022028;28;20022;-60
2024/01/12 01:04:15;;;;;;;47.63;27.70;;;;;;;2.13;76.67;103324.16;5023646;28;20026;-61
2024/01/12 01:06:40;;;;;;;50.47;28.17;;;;;;;2.13;76.89;103332.38;5029503;28;20041;-62
2024/01/12 01:09:05;;;;;;;45.28;27.55;;;;;;;2.11;76.51;103320.66;5051335;28;20064;-61
2024/01/12 01:11:30;;;;;;;44.40;26.60;;;;;;;2.12;76.37;103319.69;5016300;28;20113;-62
2024/01/12 01:13:56;;;;;;;43.97;26.65;;;;;;;2.12;75.78;103322.44;5034763;28;20033;-60
2024/01/12 01:16:21;;;;;;;44.85;27.13;;;;;;;2.13;76.68;103315.94;5010511;28;20082;-60
2024/01/12 01:18:46;;;;;;;47.80;27.55;;;;;;;2.16;76.48;103320.25;5010646;28;20473;-60
2024/01/12 01:21:12;;;;;;;45.95;27.33;;;;;;;2.16;76.33;103317.50;5022618;28;20033;-60
2024/01/12 01:23:37;;;;;;;48.03;27.30;;;;;;;2.18;76.21;103332.81;5019055;28;20492;-62
2024/01/12 01:26:02;;;;;;;44.60;27.20;;;;;;;2.19;76.39;103325.47;5020440;28;20036;-60
2024/01/12 01:28:28;;;;;;;47.63;28.02;;;;;;;2.21;76.32;103334.44;5027116;28;20038;-60
2024/01/12 01:30:53;;;;;;;43.75;27.20;;;;;;;2.19;76.48;103344.66;5030214;28;20040;-60
2024/01/12 01:33:19;;;;;;;44.75;26.90;;;;;;;2.18;76.57;103342.91;5029421;28;20029;-60
2024/01/12 01:35:44;;;;;;;46.78;27.45;;;;;;;2.18;76.40;103346.53;5026996;28;20026;-60
2024/01/12 01:38:09;;;;;;;46.90;27.85;;;;;;;2.18;76.88;103356.63;5010331;28;20045;-60
2024/01/12 01:40:34;;;;;;;43.03;26.40;;;;;;;2.21;76.32;103353.63;5024310;28;20112;-60
2024/01/12 01:43:09;;;;;;;45.92;27.58;;;;;;;2.21;76.14;103362.69;5014716;28;20022;-61
2024/01/12 01:45:36;;;;;;;48.13;28.10;;;;;;;2.19;76.48;103366.56;5009891;28;20094;-60
2024/01/12 01:48:08;;;;;;;46.17;27.30;;;;;;;2.20;76.96;103377.41;5009138;28;20057;-60
2024/01/12 01:50:37;;;;;;;45.83;27.40;;;;;;;2.19;76.81;103364.69;5009635;28;20056;-60
2024/01/12 01:53:03;;;;;;;45.67;27.52;;;;;;;2.19;76.83;103359.22;5008406;28;20556;-60
2024/01/12 01:55:30;;;;;;;47.22;26.35;;;;;;;2.21;76.16;103354.47;5048810;28;20034;-60
2024/01/12 01:57:56;;;;;;;49.45;27.67;;;;;;;2.22;76.23;103360.81;5000673;28;20481;-61
2024/01/12 02:00:22;;;;;;;46.15;27.50;;;;;;;2.20;75.97;103360.97;5009431;28;20135;-61
2024/01/12 02:02:48;;;;;;;45.55;26.38;;;;;;;2.20;76.37;103358.22;5009290;28;20052;-61
2024/01/12 02:05:14;;;;;;;44.35;26.73;;;;;;;2.21;75.90;103351.75;5009598;28;20552;-61
2024/01/12 02:07:40;;;;;;;44.85;27.67;;;;;;;2.20;75.65;103347.28;5009245;28;20477;-60
2024/01/12 02:10:06;;;;;;;47.50;26.23;;;;;;;2.19;76.53;103337.28;5003329;28;20038;-60
2024/01/12 02:12:34;;;;;;;43.80;26.73;;;;;;;2.19;76.73;103342.78;5009064;28;20056;-61
2024/01/12 02:15:00;;;;;;;45.40;26.60;;;;;;;2.18;75.95;103338.31;4993769;28;20021;-61
2024/01/12 02:17:26;;;;;;;43.42;26.13;;;;;;;2.20;76.13;103333.56;5008457;28;20055;-61
2024/01/12 02:19:58;;;;;;;44.47;25.92;;;;;;;2.19;76.45;103329.06;5011854;28;20033;-61
2024/01/12 02:22:23;;;;;;;42.35;25.05;;;;;;;2.20;76.37;103327.19;5009582;28;20026;-61
2024/01/12 02:24:48;;;;;;;44.17;26.60;;;;;;;2.19;75.85;103329.06;5008569;28;20037;-61
2024/01/12 02:27:14;;;;;;;45.22;25.63;;;;;;;2.19;76.08;103336.44;5009549;28;20476;-61
2024/01/12 02:29:39;;;;;;;42.88;25.67;;;;;;;2.18;76.15;103338.31;5042277;28;20034;-61
2024/01/12 02:32:04;;;;;;;42.97;26.27;;;;;;;2.18;75.76;103338.31;5009467;28;20029;-61
2024/01/12 02:34:30;;;;;;;44.72;26.60;;;;;;;2.21;75.73;103339.91;5010632;28;20030;-61
2024/01/12 02:36:55;;;;;;;42.22;26.08;;;;;;;2.20;76.39;103338.16;5007981;28;20081;-61
2024/01/12 02:39:20;;;;;;;45.80;26.00;;;;;;;2.22;76.62;103337.03;5009254;28;20045;-61
2024/01/12 02:41:45;;;;;;;45.08;26.02;;;;;;;2.21;76.29;103343.53;5009160;28;20037;-61
2024/01/12 02:44:11;;;;;;;41.28;26.30;;;;;;;2.21;76.58;103340.78;5008006;28;20499;-61
2024/01/12 02:46:36;;;;;;;45.10;26.67;;;;;;;2.21;76.69;103343.53;5007176;28;20040;-60
2024/01/12 02:49:01;;;;;;;43.83;27.25;;;;;;;2.21;76.01;103346.25;4997746;28;20392;-61
2024/01/12 02:51:27;;;;;;;43.00;26.50;;;;;;;2.23;76.15;103343.38;5011074;28;20038;-60
2024/01/12 02:53:52;;;;;;;45.35;26.65;;;;;;;2.23;76.32;103324.19;5079385;28;20486;-61
2024/01/12 02:56:17;;;;;;;49.65;27.52;;;;;;;2.22;76.06;103328.81;5012124;28;20022;-61
2024/01/12 02:58:42;;;;;;;44.00;27.33;;;;;;;2.22;76.90;103320.59;5013679;28;20044;-60
2024/01/12 03:01:08;;;;;;;46.45;27.98;;;;;;;2.23;77.04;103313.22;5009877;28;20065;-61
2024/01/12 03:03:33;;;;;;;45.42;27.08;;;;;;;2.24;76.92;103314.09;5031901;28;20030;-61
2024/01/12 03:05:58;;;;;;;47.28;27.30;;;;;;;2.24;76.24;103317.72;5062732;28;20036;-61
2024/01/12 03:08:24;;;;;;;47.42;27.85;;;;;;;2.24;76.58;103311.34;5016697;28;20665;-61
2024/01/12 03:10:49;;;;;;;45.75;28.52;;;;;;;2.25;75.97;103307.63;5014614;28;20037;-61
2024/01/12 03:13:14;;;;;;;49.10;28.27;;;;;;;2.26;76.50;103312.09;5011445;28;20030;-61
2024/01/12 03:15:39;;;;;;;43.95;27.25;;;;;;;2.28;76.50;103318.28;5008925;28;20380;-61
2024/01/12 03:18:05;;;;;;;44.65;28.05;;;;;;;2.27;76.81;103317.44;5013959;28;20030;-61
2024/01/12 03:20:30;;;;;;;48.03;27.77;;;;;;;2.27;76.35;103313.81;5014339;28;20049;-61
2024/01/12 03:22:55;;;;;;;45.03;28.70;;;;;;;2.27;75.99;103311.09;5020462;28;20025;-60
2024/01/12 03:25:21;;;;;;;47.00;27.92;;;;;;;2.27;76.38;103313.81;5068655;28;20038;-61
2024/01/12 03:27:46;;;;;;;47.03;27.58;;;;;;;2.28;76.29;103310.97;5014240;28;20112;-61
2024/01/12 03:30:11;;;;;;;46.40;27.20;;;;;;;2.28;76.53;103305.47;5011224;28;20357;-61
2024/01/12 03:32:37;;;;;;;46.65;27.80;;;;;;;2.27;76.37;103309.19;5017032;28;20117;-61
2024/01/12 03:35:03;;;;;;;47.13;27.88;;;;;;;2.27;76.49;103303.72;5020545;28;20032;-61
2024/01/12 03:37:29;;;;;;;47.63;29.00;;;;;;;2.28;76.52;103310.06;5084839;28;20033;-61
2024/01/12 03:39:54;;;;;;;43.63;26.73;;;;;;;2.29;76.35;103304.47;5024438;28;20044;-61
2024/01/12 03:42:19;;;;;;;47.90;28.45;;;;;;;2.29;76.86;103307.22;5012908;28;20369;-61
2024/01/12 03:44:45;;;;;;;45.35;27.80;;;;;;;2.27;76.68;103308.34;5008664;28;20057;-61
2024/01/12 03:47:10;;;;;;;50.65;29.10;;;;;;;2.28;75.96;103308.22;5025278;28;20132;-61
2024/01/12 03:49:35;;;;;;;46.80;29.27;;;;;;;2.29;76.60;103306.34;5010921;28;20128;-61
2024/01/12 03:52:01;;;;;;;47.17;27.45;;;;;;;2.28;76.18;103300.00;5007679;28;20037;-61
2024/01/12 03:54:26;;;;;;;44.13;25.45;;;;;;;2.28;76.23;103297.25;5007402;28;20362;-61
2024/01/12 03:56:52;;;;;;;48.47;27.98;;;;;;;2.29;76.34;103300.88;5007702;28;20176;-61
2024/01/12 03:59:18;;;;;;;44.63;26.90;;;;;;;2.28;76.74;103300.00;4994299;28;20033;-61
2024/01/12 04:01:47;;;;;;;43.88;27.08;;;;;;;2.29;76.49;103300.88;5028869;28;20041;-61
2024/01/12 04:04:12;;;;;;;51.25;28.05;;;;;;;2.28;76.35;103297.25;5009274;28;20022;-61
2024/01/12 04:06:39;;;;;;;47.90;28.90;;;;;;;2.27;76.01;103287.28;5001393;28;20033;-61
2024/01/12 04:09:05;;;;;;;47.28;27.35;;;;;;;2.27;76.34;103294.63;5013238;28;20096;-61
2024/01/12 04:11:30;;;;;;;48.80;27.73;;;;;;;2.26;76.67;103298.41;5016238;28;20592;-61
2024/01/12 04:13:56;;;;;;;47.42;28.67;;;;;;;2.27;76.42;103289.16;5023161;28;20055;-61
2024/01/12 04:16:21;;;;;;;47.75;27.83;;;;;;;2.26;76.39;103288.28;5018351;28;20072;-61
2024/01/12 04:18:46;;;;;;;44.53;27.63;;;;;;;2.27;75.98;103292.75;5026171;28;20033;-61
2024/01/12 04:21:12;;;;;;;44.45;28.42;;;;;;;2.27;77.01;103291.91;5027783;28;20030;-60
2024/01/12 04:23:39;;;;;;;48.33;28.70;;;;;;;2.28;76.09;103293.63;5031342;28;20030;-61
2024/01/12 04:26:04;;;;;;;46.65;28.58;;;;;;;2.28;76.79;103289.03;5011295;28;20097;-60
2024/01/12 04:28:30;;;;;;;46.58;28.55;;;;;;;2.30;75.98;103300.72;5017544;28;20498;-61
2024/01/12 04:30:55;;;;;;;45.30;27.90;;;;;;;2.32;76.20;103292.34;5015182;28;20030;-60
2024/01/12 04:33:20;;;;;;;50.63;28.35;;;;;;;2.31;76.80;103294.22;5015302;28;20735;-61
2024/01/12 04:35:45;;;;;;;48.08;28.58;;;;;;;2.31;76.20;103309.78;5015465;28;20094;-60
2024/01/12 04:38:11;;;;;;;47.80;28.85;;;;;;;2.32;76.74;103303.31;5021117;28;20026;-61
2024/01/12 04:40:36;;;;;;;50.40;27.95;;;;;;;2.32;76.95;103297.81;5011599;28;20056;-61
2024/01/12 04:43:03;;;;;;;50.47;28.00;;;;;;;2.30;76.34;103303.47;5017755;28;20034;-61
2024/01/12 04:45:29;;;;;;;47.17;29.13;;;;;;;2.29;76.44;103300.88;5015957;28;20507;-61
2024/01/12 04:47:54;;;;;;;46.50;27.70;;;;;;;2.29;76.80;103300.88;5018903;28;20034;-61
2024/01/12 04:50:20;;;;;;;48.30;29.17;;;;;;;2.30;76.52;103303.47;5009011;28;20030;-60
2024/01/12 04:52:45;;;;;;;46.20;28.33;;;;;;;2.31;76.94;103307.06;5033002;28;20021;-60
2024/01/12 04:55:10;;;;;;;49.28;28.25;;;;;;;2.31;76.80;103305.19;5015128;28;20045;-60
2024/01/12 04:57:36;;;;;;;48.35;28.33;;;;;;;2.32;76.21;103303.31;5015379;28;20033;-60
2024/01/12 05:00:01;;;;;;;48.25;27.45;;;;;;;2.29;76.49;103300.88;5014187;28;20067;-61
2024/01/12 05:02:26;;;;;;;44.35;27.27;;;;;;;2.32;76.93;103295.97;5015808;28;20036;-60
2024/01/12 05:04:52;;;;;;;47.40;27.73;;;;;;;2.34;76.51;103304.03;5017308;28;20044;-61
2024/01/12 05:07:17;;;;;;;48.60;27.42;;;;;;;2.34;76.45;103309.53;4998289;28;20106;-61
2024/01/12 05:09:42;;;;;;;52.20;27.67;;;;;;;2.35;76.53;103303.03;5009793;28;20056;-61
2024/01/12 05:12:08;;;;;;;45.00;27.20;;;;;;;2.33;76.12;103289.47;5007184;28;20453;-61
2024/01/12 05:14:33;;;;;;;51.85;28.38;;;;;;;2.33;76.63;103284.00;5006657;28;20033;-61
2024/01/12 05:16:58;;;;;;;45.50;27.25;;;;;;;2.33;76.13;103288.63;5011371;28;20037;-61
2024/01/12 05:19:24;;;;;;;46.65;26.83;;;;;;;2.33;76.76;103280.41;5009252;28;20109;-61
2024/01/12 05:21:49;;;;;;;49.80;28.50;;;;;;;2.33;76.31;103269.44;5020802;28;20446;-61
2024/01/12 05:24:15;;;;;;;46.03;27.02;;;;;;;2.32;76.21;103281.38;5010562;28;20033;-61
2024/01/12 05:26:40;;;;;;;44.05;26.65;;;;;;;2.32;76.75;103286.84;5009865;28;20469;-60
2024/01/12 05:29:08;;;;;;;44.53;25.70;;;;;;;2.33;76.94;103289.47;5009202;28;20071;-60
2024/01/12 05:31:33;;;;;;;43.67;25.50;;;;;;;2.31;76.76;103282.41;5013989;28;20046;-61
2024/01/12 05:33:58;;;;;;;46.80;25.40;;;;;;;2.32;76.64;103278.63;4997566;28;20034;-61
2024/01/12 05:36:24;;;;;;;42.65;24.85;;;;;;;2.34;76.46;103268.41;5016666;28;20029;-61
2024/01/12 05:38:49;;;;;;;39.60;23.25;;;;;;;2.32;76.35;103268.56;5007559;28;20550;-60
2024/01/12 05:41:14;;;;;;;41.88;23.75;;;;;;;2.33;76.37;103280.41;5009639;28;20033;-61
2024/01/12 05:43:40;;;;;;;43.70;24.02;;;;;;;2.34;76.01;103277.50;5009800;28;20052;-60
2024/01/12 05:46:06;;;;;;;43.08;23.70;;;;;;;2.35;76.80;103279.22;5009981;28;20405;-60
2024/01/12 05:48:32;;;;;;;38.20;22.48;;;;;;;2.35;76.31;103290.19;5009011;28;20037;-61
2024/01/12 05:50:57;;;;;;;39.70;23.88;;;;;;;2.37;76.59;103288.19;5008857;28;20044;-60
2024/01/12 05:53:25;;;;;;;40.67;23.05;;;;;;;2.36;76.92;103288.34;5009481;28;20109;-61
2024/01/12 05:55:53;;;;;;;38.83;22.83;;;;;;;2.36;76.70;103293.81;5005782;28;20040;-60
2024/01/12 05:58:19;;;;;;;35.45;21.40;;;;;;;2.37;76.88;103298.28;5009297;28;20041;-60
2024/01/12 06:00:46;;;;;;;38.90;21.92;;;;;;;2.38;76.44;103300.88;5011851;28;20026;-60
2024/01/12 06:03:12;;;;;;;37.58;21.23;;;;;;;2.38;76.56;103302.75;5010447;28;20106;-61
2024/01/12 06:05:38;;;;;;;36.40;21.02;;;;;;;2.38;76.62;103306.38;5024914;28;20589;-60
2024/01/12 06:08:04;;;;;;;32.75;19.60;;;;;;;2.39;76.47;103299.88;5009335;28;20148;-60
2024/01/12 06:10:29;;;;;;;35.35;19.42;;;;;;;2.39;76.50;103302.59;5019130;28;20065;-61
2024/01/12 06:12:54;;;;;;;35.80;20.27;;;;;;;2.40;76.13;103304.38;5019290;28;20052;-61
2024/01/12 06:15:20;;;;;;;38.38;20.08;;;;;;;2.42;76.43;103302.34;5008537;28;20079;-61
2024/01/12 06:17:45;;;;;;;34.88;19.60;;;;;;;2.43;76.23;103303.19;5024263;28;20031;-60
2024/01/12 06:20:11;;;;;;;33.90;19.98;;;;;;;2.43;76.02;103301.31;5017674;28;20321;-60
2024/01/12 06:22:36;;;;;;;37.15;18.75;;;;;;;2.42;76.08;103301.47;5016986;28;20041;-60
2024/01/12 06:25:01;;;;;;;35.25;18.92;;;;;;;2.45;76.16;103303.94;5017670;28;20047;-60
2024/01/12 06:27:27;;;;;;;37.42;19.73;;;;;;;2.45;76.71;103318.50;5012994;28;20033;-61
2024/01/12 06:29:52;;;;;;;32.13;18.77;;;;;;;2.47;76.15;103315.63;5024051;28;20041;-61
2024/01/12 06:32:18;;;;;;;36.55;19.73;;;;;;;2.47;76.87;103313.75;5020189;28;20141;-61
2024/01/12 06:34:43;;;;;;;35.05;18.17;;;;;;;2.46;76.41;103308.41;5025709;28;20040;-60
2024/01/12 06:37:08;;;;;;;29.13;17.52;;;;;;;2.47;76.46;103315.63;5015211;28;20042;-60
2024/01/12 06:39:34;;;;;;;35.05;18.23;;;;;;;2.46;76.37;103322.97;5010347;28;20077;-60
2024/01/12 06:41:59;;;;;;;31.33;18.13;;;;;;;2.49;76.80;103330.06;5008969;28;20022;-60
2024/01/12 06:44:24;;;;;;;34.53;18.70;;;;;;;2.50;76.15;103320.84;5008194;28;20087;-60
2024/01/12 06:46:50;;;;;;;36.47;17.48;;;;;;;2.50;76.60;103314.47;5006146;28;20022;-60
2024/01/12 06:49:15;;;;;;;37.88;18.27;;;;;;;2.52;76.52;103326.19;5006884;28;20641;-60
2024/01/12 06:51:40;;;;;;;29.98;16.80;;;;;;;2.54;76.54;103322.28;5007507;28;20036;-60
2024/01/12 06:54:05;;;;;;;31.17;17.02;;;;;;;2.54;75.81;103319.53;5007160;28;20426;-60
2024/01/12 06:56:32;;;;;;;31.42;16.80;;;;;;;2.56;76.23;103325.78;5046109;28;20035;-60
2024/01/12 06:58:57;;;;;;;33.65;17.17;;;;;;;2.55;76.09;103328.63;5023344;28;20026;-60
2024/01/12 07:01:23;;;;;;;30.80;17.60;;;;;;;2.54;76.15;103327.78;5008006;28;20377;-60
2024/01/12 07:03:48;;;;;;;35.85;17.10;;;;;;;2.54;76.55;103333.25;4996525;28;20105;-60
2024/01/12 07:06:13;;;;;;;34.03;16.73;;;;;;;2.56;75.87;103334.00;4994758;28;20076;-60
2024/01/12 07:08:39;;;;;;;32.63;15.93;;;;;;;2.58;75.94;103331.97;5008525;28;20469;-60
2024/01/12 07:11:06;;;;;;;31.58;16.60;;;;;;;2.56;75.94;103313.94;5011441;28;20057;-60
2024/01/12 07:13:32;;;;;;;31.23;16.77;;;;;;;2.58;76.51;103331.09;5007449;28;20159;-61
2024/01/12 07:15:57;;;;;;;30.02;16.23;;;;;;;2.60;76.20;103326.38;4996600;28;20098;-60
2024/01/12 07:18:22;;;;;;;30.73;16.27;;;;;;;2.59;76.42;103330.09;5024805;28;20055;-60
2024/01/12 07:20:48;;;;;;;29.58;14.88;;;;;;;2.58;76.50;103314.66;5013774;28;20060;-60
2024/01/12 07:23:13;;;;;;;28.75;15.82;;;;;;;2.58;76.46;103315.50;5015013;28;20454;-60
2024/01/12 07:25:38;;;;;;;33.88;15.38;;;;;;;2.60;76.14;103302.53;5013148;28;20026;-60
2024/01/12 07:28:05;;;;;;;35.60;16.08;;;;;;;2.59;76.39;103309.00;5019366;28;20033;-60
2024/01/12 07:30:31;;;;;;;26.77;15.38;;;;;;;2.61;75.85;103300.66;5010331;28;20461;-61
2024/01/12 07:32:56;;;;;;;30.35;16.55;;;;;;;2.60;76.41;103299.81;5001207;28;20080;-60
2024/01/12 07:35:21;;;;;;;42.88;23.60;;;;;;;2.60;76.03;103305.28;5010668;28;20132;-60
2024/01/12 07:37:47;;;;;;;43.92;27.77;;;;;;;2.61;76.31;103301.53;5011057;28;20377;-59
2024/01/12 07:40:12;;;;;;;39.97;25.00;;;;;;;2.60;76.19;103302.53;5023675;28;20054;-60
2024/01/12 07:42:38;;;;;;;42.53;25.48;;;;;;;2.61;75.89;103304.28;5016829;28;20445;-60
2024/01/12 07:45:04;;;;;;;47.33;29.08;;;;;;;2.60;76.10;103291.59;5006989;28;20022;-59
2024/01/12 07:47:29;;;;;;;39.50;24.50;;;;;;;2.58;76.62;103296.31;5014777;28;20018;-59
2024/01/12 07:49:55;;;;;;;45.42;26.00;;;;;;;2.60;76.32;103310.78;5018390;28;20448;-59
2024/01/12 07:52:20;;;;;;;38.10;23.08;;;;;;;2.60;76.47;103304.44;5021621;27;20241;-59
2024/01/12 07:54:46;;;;;;;33.67;20.70;;;;;;;2.64;76.33;103305.88;5021749;28;20046;-61
2024/01/12 07:57:11;;;;;;;31.58;19.13;;;;;;;2.63;76.56;103298.63;5017501;28;20182;-60
2024/01/12 07:59:36;;;;;;;32.85;17.77;;;;;;;2.64;76.07;103295.78;5004905;28;20058;-59
2024/01/12 08:02:02;;;;;;;31.00;16.15;;;;;;;2.64;76.81;103289.44;5021335;28;20507;-59
2024/01/12 08:04:27;;;;;;;25.95;16.13;;;;;;;2.64;76.06;103287.53;5014878;28;20097;-59
2024/01/12 08:06:53;;;;;;;27.38;15.68;;;;;;;2.65;75.89;103283.78;5016130;28;20033;-59
2024/01/12 08:09:18;;;;;;;27.23;15.95;;;;;;;2.67;76.30;103295.50;5030143;28;20095;-59
2024/01/12 08:11:44;;;;;;;29.00;16.20;;;;;;;2.66;76.38;103301.97;5025703;28;20032;-59
2024/01/12 08:14:09;;;;;;;31.35;16.13;;;;;;;2.67;76.49;103303.72;5014993;28;20077;-59
2024/01/12 08:16:34;;;;;;;31.83;15.85;;;;;;;2.68;76.42;103299.97;5028197;28;20030;-59
2024/01/12 08:19:00;;;;;;;31.02;16.40;;;;;;;2.69;76.45;103303.56;5015774;28;20029;-59
2024/01/12 08:21:25;;;;;;;36.30;16.17;;;;;;;2.69;76.67;103301.69;5018712;28;20034;-59
2024/01/12 08:23:51;;;;;;;25.02;15.35;;;;;;;2.70;76.39;103308.91;5028354;28;20029;-59
2024/01/12 08:26:19;;;;;;;26.25;16.50;;;;;;;2.69;76.65;103309.91;5011923;28;20065;-60
2024/01/12 08:28:44;;;;;;;33.45;16.40;;;;;;;2.69;76.04;103307.19;4993882;28;20026;-60
2024/01/12 08:31:09;;;;;;;32.85;15.80;;;;;;;2.72;76.41;103307.91;4997408;28;20038;-61
2024/01/12 08:33:37;;;;;;;31.55;15.68;;;;;;;2.72;77.08;103307.91;4991602;28;20536;-60
2024/01/12 08:36:03;;;;;;;31.98;16.02;;;;;;;2.72;77.01;103306.03;4988502;28;20030;-61
2024/01/12 08:38:29;;;;;;;32.33;16.05;;;;;;;2.75;77.02;103310.34;5006852;28;20123;-59
2024/01/12 08:40:55;;;;;;;30.25;17.00;;;;;;;2.77;76.26;103316.56;5017057;28;20059;-60
2024/01/12 08:43:20;;;;;;;29.98;17.00;;;;;;;2.79;76.64;103314.53;5019419;28;20037;-60
2024/01/12 08:45:45;;;;;;;29.60;17.30;;;;;;;2.83;76.49;103324.22;5025275;28;20025;-60
2024/01/12 08:48:11;;;;;;;30.40;16.48;;;;;;;2.82;77.28;103325.25;5012777;28;20025;-60
2024/01/12 08:50:36;;;;;;;31.13;16.60;;;;;;;2.83;76.64;103319.63;5018902;28;20083;-60
2024/01/12 08:53:02;;;;;;;33.25;17.83;;;;;;;2.83;76.79;103319.63;5027451;28;20426;-60
2024/01/12 08:55:27;;;;;;;29.73;16.60;;;;;;;2.86;77.10;103321.19;5014846;28;20037;-60
2024/01/12 08:57:53;;;;;;;27.65;16.92;;;;;;;2.87;77.21;103317.44;4990452;28;20030;-60
2024/01/12 09:00:19;;;;;;;28.90;16.63;;;;;;;2.87;76.81;103309.22;5015772;28;20026;-60
2024/01/12 09:02:44;;;;;;;32.13;17.13;;;;;;;2.89;77.37;103309.94;5004676;28;20114;-60
2024/01/12 09:05:11;;;;;;;36.65;17.23;;;;;;;2.89;77.23;103315.44;5022416;28;20026;-61
2024/01/12 09:07:36;;;;;;;38.35;17.52;;;;;;;2.91;76.35;103318.94;5019742;28;20117;-61
2024/01/12 09:10:02;;;;;;;40.00;18.20;;;;;;;2.90;76.76;103312.53;5026133;28;20116;-60
2024/01/12 09:12:28;;;;;;;32.55;17.83;;;;;;;2.92;76.97;103320.66;5011158;28;20026;-60
2024/01/12 09:14:53;;;;;;;32.70;17.15;;;;;;;2.93;76.62;103314.16;5009372;28;20033;-61
2024/01/12 09:17:18;;;;;;;19.27;11.25;;;;;;;3.60;82.78;103317.91;5020888;28;20053;-60
2024/01/12 09:19:44;;;;;;;35.78;17.05;;;;;;;3.32;77.92;103316.91;4989521;28;20056;-61
2024/01/12 09:22:10;;;;;;;32.05;16.60;;;;;;;3.28;76.91;103312.72;5009265;28;20029;-61
2024/01/12 09:24:35;;;;;;;36.17;16.88;;;;;;;3.22;76.18;103316.91;5009373;28;20496;-61
2024/01/12 09:27:00;;;;;;;38.25;18.15;;;;;;;3.19;76.03;103320.81;5009949;28;20138;-61
2024/01/12 09:29:26;;;;;;;33.28;18.15;;;;;;;3.15;76.46;103316.63;5010409;28;20029;-60
2024/01/12 09:31:51;;;;;;;36.42;19.27;;;;;;;3.12;76.28;103311.41;5002690;28;20431;-61
2024/01/12 09:34:16;;;;;;;34.58;19.95;;;;;;;3.12;76.35;103305.06;5020834;28;20026;-61
2024/01/12 09:36:42;;;;;;;38.40;20.73;;;;;;;3.11;76.14;103312.44;5009892;28;20426;-61
2024/01/12 09:39:07;;;;;;;36.28;19.35;;;;;;;3.10;76.03;103318.91;4997523;28;20447;-61
2024/01/12 09:41:58;;;;;;;34.50;18.00;;;;;;;3.13;76.09;103324.13;4998056;28;20026;-61
2024/01/12 09:44:27;;;;;;;33.38;17.65;;;;;;;3.11;76.12;103319.81;5009576;28;20485;-61
2024/01/12 09:46:57;;;;;;;43.65;25.83;;;;;;;3.11;76.45;103315.19;5020440;28;20038;-61
2024/01/12 09:49:25;;;;;;;31.17;20.35;;;;;;;3.13;75.94;103315.03;5002810;28;20038;-61
2024/01/12 09:51:51;;;;;;;32.28;17.35;;;;;;;3.12;76.17;103316.03;5009760;28;20022;-61
2024/01/12 09:54:17;;;;;;;32.78;17.85;;;;;;;3.14;76.11;103314.00;5008662;28;20377;-61
2024/01/12 09:56:44;;;;;;;32.38;16.67;;;;;;;3.14;76.12;103314.91;5023128;28;20034;-61
2024/01/12 09:59:09;;;;;;;29.20;16.27;;;;;;;3.14;75.90;103320.38;5007258;28;20029;-60
2024/01/12 10:01:34;;;;;;;32.90;16.58;;;;;;;3.15;76.10;103315.75;5002605;28;20034;-60
2024/01/12 10:04:00;;;;;;;28.58;15.07;;;;;;;3.14;76.11;103306.66;5021711;28;20056;-60
2024/01/12 10:06:25;;;;;;;29.00;16.40;;;;;;;3.17;76.24;103313.72;5005201;28;20042;-60
2024/01/12 10:08:51;;;;;;;27.27;14.97;;;;;;;3.20;76.22;103307.97;5014043;28;20263;-61
2024/01/12 10:11:16;;;;;;;29.15;16.23;;;;;;;3.19;75.88;103304.34;5014479;28;20239;-60
2024/01/12 10:13:41;;;;;;;30.88;15.50;;;;;;;3.22;76.29;103305.06;5013214;28;20061;-61
2024/01/12 10:16:07;;;;;;;29.80;15.70;;;;;;;3.24;76.10;103303.03;5025035;28;20037;-61
2024/01/12 10:18:33;;;;;;;28.65;15.55;;;;;;;3.25;75.90;103304.78;5057695;28;20080;-60
2024/01/12 10:20:59;;;;;;;23.77;14.75;;;;;;;3.27;76.03;103313.75;4998710;28;20021;-60
2024/01/12 10:23:26;;;;;;;29.85;16.02;;;;;;;3.29;76.08;103311.72;4996250;28;20034;-61
2024/01/12 10:26:01;;;;;;;26.63;14.10;;;;;;;3.31;75.42;103312.44;5021095;28;20380;-61
2024/01/12 10:28:28;;;;;;;25.23;13.73;;;;;;;3.30;75.63;103318.91;5028325;28;20053;-60
2024/01/12 10:30:53;;;;;;;29.55;15.43;;;;;;;3.31;75.29;103324.28;5027239;28;20093;-60
2024/01/12 10:33:19;;;;;;;31.30;14.77;;;;;;;3.32;75.38;103314.16;5020841;28;20037;-59
2024/01/12 10:35:48;;;;;;;32.28;14.55;;;;;;;3.33;75.88;103310.41;4993690;28;20030;-60
2024/01/12 10:38:15;;;;;;;24.13;14.23;;;;;;;3.34;75.31;103309.38;5007275;28;20910;-60
2024/01/12 10:40:43;;;;;;;26.45;14.48;;;;;;;3.35;75.88;103302.91;5006981;28;20082;-60
2024/01/12 10:43:11;;;;;;;30.27;15.45;;;;;;;3.36;75.74;103297.25;5008071;28;20030;-60
2024/01/12 10:45:43;;;;;;;30.17;14.60;;;;;;;3.39;75.84;103287.88;5012890;28;20532;-60
2024/01/12 10:48:10;;;;;;;28.05;13.90;;;;;;;3.38;75.05;103278.78;5028449;28;20041;-60
2024/01/12 10:50:41;;;;;;;25.60;14.48;;;;;;;3.42;75.30;103284.84;5020675;28;20087;-60
2024/01/12 10:53:27;;;;;;;32.25;15.20;;;;;;;3.41;75.06;103289.44;5005500;28;20034;-60
2024/01/12 10:55:59;;;;;;;27.48;14.32;;;;;;;3.42;75.11;103287.59;5007798;28;20038;-61
2024/01/12 10:58:26;;;;;;;30.50;14.75;;;;;;;3.43;75.53;103287.44;5014001;28;20139;-60
2024/01/12 11:00:53;;;;;;;29.42;14.35;;;;;;;3.42;74.94;103287.59;5021495;28;20025;-61
2024/01/12 11:03:18;;;;;;;26.73;14.20;;;;;;;3.52;76.26;103288.41;5011526;28;20053;-60
2024/01/12 11:05:44;;;;;;;24.15;14.27;;;;;;;3.49;75.35;103287.84;4989253;28;20606;-60
2024/01/12 11:08:11;;;;;;;27.85;13.88;;;;;;;3.49;75.07;103290.59;5013378;28;20033;-61
2024/01/12 11:10:45;;;;;;;29.23;14.80;;;;;;;3.49;75.18;103285.97;5009470;28;20044;-61